Time,TemperatureF,DewpointF,PressureIn,WindDirection,WindDirectionDegrees,WindSpeedMPH,WindSpeedGustMPH,Humidity,HourlyPrecipIn,Conditions,Clouds,dailyrainin,SolarRadiationWatts/m^2,SoftwareType,DateUTC
2013-08-23 00:05:00,61.2,60.0,30.02,WNW,284,0.0,0.0,96,0.01,,,0.00,0,weatherlink.com 1.10,2013-08-23 05:05:00,
2013-08-23 00:20:00,60.7,60.0,30.02,WNW,284,0.0,0.0,96,0.01,,,0.00,0,weatherlink.com 1.10,2013-08-23 05:20:00,
2013-08-23 00:35:00,61.3,61.0,30.02,WNW,284,0.0,0.0,97,0.01,,,0.00,0,weatherlink.com 1.10,2013-08-23 05:35:00,
2013-08-23 00:50:00,61.5,61.0,30.02,WNW,284,0.0,0.0,97,0.00,,,0.00,0,weatherlink.com 1.10,2013-08-23 05:50:00,
2013-08-23 01:05:00,61.2,60.0,30.02,WNW,284,0.0,0.0,97,0.00,,,0.00,0,weatherlink.com 1.10,2013-08-23 06:05:00,
2013-08-23 01:20:00,60.3,59.0,30.02,WNW,284,0.0,0.0,96,0.00,,,0.00,0,weatherlink.com 1.10,2013-08-23 06:20:00,
2013-08-23 01:35:00,59.5,58.0,30.02,WNW,284,0.0,0.0,96,0.00,,,0.00,0,weatherlink.com 1.10,2013-08-23 06:35:00,
2013-08-23 01:50:00,59.0,58.0,30.03,WNW,284,0.0,0.0,96,0.00,,,0.00,0,weatherlink.com 1.10,2013-08-23 06:50:00,
2013-08-23 02:05:00,58.8,58.0,30.03,WNW,284,0.0,0.0,97,0.00,,,0.00,0,weatherlink.com 1.10,2013-08-23 07:05:00,
2013-08-23 02:20:00,59.0,58.0,30.03,WNW,284,0.0,0.0,97,0.00,,,0.00,0,weatherlink.com 1.10,2013-08-23 07:20:00,
2013-08-23 02:35:00,58.2,57.0,30.03,WNW,284,0.0,0.0,97,0.00,,,0.00,0,weatherlink.com 1.10,2013-08-23 07:35:00,
2013-08-23 02:50:00,57.9,57.0,30.03,WNW,284,0.0,0.0,97,0.00,,,0.00,0,weatherlink.com 1.10,2013-08-23 07:50:00,
2013-08-23 03:05:00,57.9,57.0,30.04,WNW,284,0.0,0.0,97,0.00,,,0.00,0,weatherlink.com 1.10,2013-08-23 08:05:00,
2013-08-23 03:20:00,57.7,57.0,30.04,WNW,284,0.0,0.0,97,0.00,,,0.00,0,weatherlink.com 1.10,2013-08-23 08:20:00,
2013-08-23 03:35:00,57.6,57.0,30.04,WNW,284,0.0,0.0,97,0.00,,,0.00,0,weatherlink.com 1.10,2013-08-23 08:35:00,
2013-08-23 03:50:00,57.7,57.0,30.04,WNW,284,0.0,0.0,97,0.00,,,0.00,0,weatherlink.com 1.10,2013-08-23 08:50:00,
2013-08-23 04:05:00,57.5,57.0,30.04,WNW,284,0.0,1.0,97,0.00,,,0.00,0,weatherlink.com 1.10,2013-08-23 09:05:00,
2013-08-23 04:20:00,57.5,57.0,30.04,WNW,284,0.0,0.0,97,0.00,,,0.00,0,weatherlink.com 1.10,2013-08-23 09:20:00,
2013-08-23 04:35:00,57.1,56.0,30.05,WNW,284,0.0,0.0,97,0.00,,,0.00,0,weatherlink.com 1.10,2013-08-23 09:35:00,
2013-08-23 04:50:00,57.1,56.0,30.05,WNW,284,0.0,0.0,97,0.00,,,0.00,0,weatherlink.com 1.10,2013-08-23 09:50:00,
2013-08-23 05:05:00,57.1,56.0,30.05,WNW,284,0.0,0.0,97,0.00,,,0.00,0,weatherlink.com 1.10,2013-08-23 10:05:00,
2013-08-23 05:20:00,57.5,57.0,30.05,WNW,284,0.0,0.0,97,0.00,,,0.00,0,weatherlink.com 1.10,2013-08-23 10:20:00,
2013-08-23 05:35:00,57.2,56.0,30.06,WNW,284,0.0,0.0,97,0.00,,,0.00,0,weatherlink.com 1.10,2013-08-23 10:35:00,
2013-08-23 05:50:00,56.9,56.0,30.07,WNW,284,0.0,0.0,97,0.00,,,0.00,0,weatherlink.com 1.10,2013-08-23 10:50:00,
2013-08-23 06:05:00,56.8,56.0,30.07,WNW,284,0.0,0.0,97,0.00,,,0.00,0,weatherlink.com 1.10,2013-08-23 11:05:00,
2013-08-23 06:20:00,56.5,56.0,30.07,WNW,284,0.0,0.0,97,0.00,,,0.00,7,weatherlink.com 1.10,2013-08-23 11:20:00,
2013-08-23 06:35:00,56.7,56.0,30.08,WNW,284,3.0,3.0,97,0.00,,,0.00,18,weatherlink.com 1.10,2013-08-23 11:35:00,
2013-08-23 06:50:00,56.6,56.0,30.08,WNW,284,2.0,3.0,97,0.00,,,0.00,40,weatherlink.com 1.10,2013-08-23 11:50:00,
2013-08-23 07:06:00,57.1,57.0,30.08,WNW,284,0.0,3.0,98,0.00,,,0.00,81,weatherlink.com 1.10,2013-08-23 12:06:00,
2013-08-23 07:21:00,58.7,58.0,30.09,WNW,284,0.0,0.0,98,0.00,,,0.00,121,weatherlink.com 1.10,2013-08-23 12:21:00,
2013-08-23 07:36:00,60.9,60.0,30.09,WNW,284,4.0,4.0,98,0.00,,,0.00,158,weatherlink.com 1.10,2013-08-23 12:36:00,
2013-08-23 07:51:00,61.7,61.0,30.09,WNW,284,0.0,3.0,98,0.00,,,0.00,197,weatherlink.com 1.10,2013-08-23 12:51:00,
2013-08-23 08:06:00,63.2,63.0,30.09,WNW,284,0.0,0.0,98,0.00,,,0.00,234,weatherlink.com 1.10,2013-08-23 13:06:00,
2013-08-23 08:21:00,64.2,64.0,30.09,WNW,284,0.0,0.0,98,0.00,,,0.00,279,weatherlink.com 1.10,2013-08-23 13:21:00,
2013-08-23 08:36:00,64.4,64.0,30.09,WNW,284,3.0,5.0,98,0.00,,,0.00,339,weatherlink.com 1.10,2013-08-23 13:36:00,
2013-08-23 08:51:00,66.0,64.0,30.09,WNW,282,5.0,6.0,94,0.00,,,0.00,383,weatherlink.com 1.10,2013-08-23 13:51:00,
2013-08-23 09:06:00,67.9,65.0,30.09,ESE,118,3.0,8.0,89,0.00,,,0.00,425,weatherlink.com 1.10,2013-08-23 14:06:00,
2013-08-23 09:21:00,69.2,65.0,30.09,East,100,6.0,7.0,85,0.00,,,0.00,468,weatherlink.com 1.10,2013-08-23 14:21:00,
2013-08-23 09:36:00,70.2,65.0,30.10,East,101,5.0,8.0,82,0.00,,,0.00,501,weatherlink.com 1.10,2013-08-23 14:36:00,
2013-08-23 09:51:00,70.7,63.0,30.10,SE,126,6.0,9.0,77,0.00,,,0.00,543,weatherlink.com 1.10,2013-08-23 14:51:00,
2013-08-23 10:06:00,71.5,64.0,30.10,ESE,119,7.0,9.0,76,0.00,,,0.00,582,weatherlink.com 1.10,2013-08-23 15:06:00,
2013-08-23 10:21:00,72.3,65.0,30.10,SE,124,4.0,9.0,78,0.00,,,0.00,622,weatherlink.com 1.10,2013-08-23 15:21:00,
2013-08-23 10:37:00,73.3,64.0,30.10,SE,130,8.0,11.0,72,0.00,,,0.00,661,weatherlink.com 1.10,2013-08-23 15:37:00,
2013-08-23 10:52:00,73.6,64.0,30.10,SE,135,5.0,14.0,72,0.00,,,0.00,686,weatherlink.com 1.10,2013-08-23 15:52:00,
2013-08-23 11:07:00,73.8,60.0,30.10,SE,135,9.0,13.0,63,0.00,,,0.00,717,weatherlink.com 1.10,2013-08-23 16:07:00,
2013-08-23 11:22:00,74.8,63.0,30.10,SE,144,5.0,10.0,67,0.00,,,0.00,742,weatherlink.com 1.10,2013-08-23 16:22:00,
2013-08-23 11:37:00,75.3,63.0,30.10,ESE,117,8.0,13.0,66,0.00,,,0.00,765,weatherlink.com 1.10,2013-08-23 16:37:00,
2013-08-23 11:52:00,75.2,60.0,30.09,ESE,123,11.0,14.0,60,0.00,,,0.00,786,weatherlink.com 1.10,2013-08-23 16:52:00,
2013-08-23 12:07:00,75.5,62.0,30.09,ESE,104,10.0,15.0,63,0.00,,,0.00,798,weatherlink.com 1.10,2013-08-23 17:07:00,
2013-08-23 12:22:00,75.9,62.0,30.09,ESE,111,10.0,14.0,63,0.00,,,0.00,809,weatherlink.com 1.10,2013-08-23 17:22:00,
2013-08-23 12:37:00,76.4,63.0,30.09,SSE,150,9.0,13.0,64,0.00,,,0.00,817,weatherlink.com 1.10,2013-08-23 17:37:00,
2013-08-23 12:52:00,76.7,63.0,30.08,SE,137,10.0,14.0,62,0.00,,,0.00,823,weatherlink.com 1.10,2013-08-23 17:52:00,
2013-08-23 13:07:00,77.2,64.0,30.08,ESE,107,10.0,14.0,63,0.00,,,0.00,823,weatherlink.com 1.10,2013-08-23 18:07:00,
2013-08-23 13:22:00,77.5,65.0,30.07,SE,130,8.0,11.0,65,0.00,,,0.00,821,weatherlink.com 1.10,2013-08-23 18:22:00,
2013-08-23 13:37:00,77.9,66.0,30.07,SE,136,6.0,12.0,66,0.00,,,0.00,814,weatherlink.com 1.10,2013-08-23 18:37:00,
2013-08-23 13:52:00,78.1,64.0,30.07,SE,128,10.0,13.0,62,0.00,,,0.00,805,weatherlink.com 1.10,2013-08-23 18:52:00,
2013-08-23 14:07:00,78.2,66.0,30.07,SE,134,8.0,10.0,66,0.00,,,0.00,793,weatherlink.com 1.10,2013-08-23 19:07:00,
2013-08-23 14:22:00,78.3,65.0,30.06,SE,142,9.0,12.0,64,0.00,,,0.00,779,weatherlink.com 1.10,2013-08-23 19:22:00,
2013-08-23 14:37:00,78.5,65.0,30.06,SE,146,9.0,14.0,64,0.00,,,0.00,758,weatherlink.com 1.10,2013-08-23 19:37:00,
2013-08-23 14:52:00,78.9,66.0,30.06,SE,125,9.0,12.0,65,0.00,,,0.00,735,weatherlink.com 1.10,2013-08-23 19:52:00,
2013-08-23 15:07:00,78.9,64.0,30.05,SSE,150,7.0,10.0,60,0.00,,,0.00,712,weatherlink.com 1.10,2013-08-23 20:07:00,
2013-08-23 15:22:00,78.7,66.0,30.05,SE,127,6.0,11.0,66,0.00,,,0.00,686,weatherlink.com 1.10,2013-08-23 20:22:00,
2013-08-23 15:37:00,78.9,65.0,30.05,ESE,113,5.0,10.0,63,0.00,,,0.00,654,weatherlink.com 1.10,2013-08-23 20:37:00,
2013-08-23 15:52:00,79.1,66.0,30.05,SE,127,5.0,9.0,64,0.00,,,0.00,621,weatherlink.com 1.10,2013-08-23 20:52:00,
2013-08-23 16:07:00,78.7,66.0,30.05,SE,127,6.0,10.0,65,0.00,,,0.00,587,weatherlink.com 1.10,2013-08-23 21:07:00,
2013-08-23 16:22:00,78.7,66.0,30.04,SE,130,9.0,10.0,65,0.00,,,0.00,548,weatherlink.com 1.10,2013-08-23 21:22:00,
2013-08-23 16:37:00,78.6,64.0,30.04,ESE,118,7.0,10.0,62,0.00,,,0.00,508,weatherlink.com 1.10,2013-08-23 21:37:00,
2013-08-23 16:52:00,78.4,64.0,30.04,SSE,149,6.0,11.0,62,0.00,,,0.00,468,weatherlink.com 1.10,2013-08-23 21:52:00,
2013-08-23 17:07:00,78.2,64.0,30.04,SE,140,7.0,10.0,62,0.00,,,0.00,425,weatherlink.com 1.10,2013-08-23 22:07:00,
2013-08-23 17:22:00,77.9,65.0,30.04,SE,139,10.0,10.0,64,0.00,,,0.00,383,weatherlink.com 1.10,2013-08-23 22:22:00,
2013-08-23 17:37:00,77.3,64.0,30.04,SE,138,3.0,8.0,63,0.00,,,0.00,338,weatherlink.com 1.10,2013-08-23 22:37:00,
2013-08-23 17:52:00,77.0,63.0,30.04,SSE,152,4.0,10.0,63,0.00,,,0.00,292,weatherlink.com 1.10,2013-08-23 22:52:00,
2013-08-23 18:07:00,76.7,64.0,30.04,SE,137,4.0,8.0,64,0.00,,,0.00,244,weatherlink.com 1.10,2013-08-23 23:07:00,
2013-08-23 18:22:00,76.2,64.0,30.04,SE,137,5.0,8.0,66,0.00,,,0.00,202,weatherlink.com 1.10,2013-08-23 23:22:00,
2013-08-23 18:37:00,75.4,64.0,30.04,SE,135,4.0,7.0,68,0.00,,,0.00,156,weatherlink.com 1.10,2013-08-23 23:37:00,
2013-08-23 18:52:00,74.4,64.0,30.03,SE,136,5.0,6.0,70,0.00,,,0.00,113,weatherlink.com 1.10,2013-08-23 23:52:00,
2013-08-23 19:07:00,72.9,64.0,30.04,SE,136,5.0,7.0,74,0.00,,,0.00,62,weatherlink.com 1.10,2013-08-24 00:07:00,
2013-08-23 19:22:00,71.3,63.0,30.03,SE,136,5.0,7.0,74,0.00,,,0.00,19,weatherlink.com 1.10,2013-08-24 00:22:00,
2013-08-23 19:37:00,69.2,63.0,30.03,SE,134,4.0,6.0,80,0.00,,,0.00,11,weatherlink.com 1.10,2013-08-24 00:37:00,
2013-08-23 19:52:00,67.4,62.0,30.04,SE,134,4.0,5.0,84,0.00,,,0.00,0,weatherlink.com 1.10,2013-08-24 00:52:00,
2013-08-23 20:07:00,65.9,61.0,30.04,SE,134,4.0,5.0,85,0.00,,,0.00,0,weatherlink.com 1.10,2013-08-24 01:07:00,
2013-08-23 20:22:00,64.8,61.0,30.04,SE,134,4.0,5.0,86,0.00,,,0.00,0,weatherlink.com 1.10,2013-08-24 01:22:00,
2013-08-23 20:37:00,64.1,60.0,30.05,SE,134,5.0,6.0,87,0.00,,,0.00,0,weatherlink.com 1.10,2013-08-24 01:37:00,
2013-08-23 20:52:00,63.2,59.0,30.05,SE,134,4.0,5.0,87,0.00,,,0.00,0,weatherlink.com 1.10,2013-08-24 01:52:00,
2013-08-23 21:07:00,62.2,59.0,30.06,SE,134,5.0,5.0,88,0.00,,,0.00,0,weatherlink.com 1.10,2013-08-24 02:07:00,
2013-08-23 21:22:00,61.8,58.0,30.07,SE,134,4.0,5.0,88,0.00,,,0.00,0,weatherlink.com 1.10,2013-08-24 02:22:00,
2013-08-23 21:37:00,61.1,58.0,30.07,SE,134,4.0,5.0,88,0.00,,,0.00,0,weatherlink.com 1.10,2013-08-24 02:37:00,
2013-08-23 21:52:00,60.5,57.0,30.07,SE,134,4.0,6.0,89,0.00,,,0.00,0,weatherlink.com 1.10,2013-08-24 02:52:00,
2013-08-23 22:07:00,60.3,57.0,30.07,SE,134,5.0,6.0,89,0.00,,,0.00,0,weatherlink.com 1.10,2013-08-24 03:07:00,
2013-08-23 22:22:00,59.8,57.0,30.07,SE,134,5.0,6.0,89,0.00,,,0.00,0,weatherlink.com 1.10,2013-08-24 03:22:00,
2013-08-23 22:37:00,59.0,56.0,30.07,SE,133,5.0,6.0,90,0.00,,,0.00,0,weatherlink.com 1.10,2013-08-24 03:37:00,
2013-08-23 22:52:00,58.7,56.0,30.07,SE,133,6.0,6.0,90,0.00,,,0.00,0,weatherlink.com 1.10,2013-08-24 03:52:00,
2013-08-23 23:07:00,58.3,56.0,30.07,SE,133,4.0,6.0,90,0.00,,,0.00,0,weatherlink.com 1.10,2013-08-24 04:07:00,
2013-08-23 23:22:00,58.4,55.0,30.07,SE,132,7.0,8.0,89,0.00,,,0.00,0,weatherlink.com 1.10,2013-08-24 04:22:00,
2013-08-23 23:38:00,58.2,55.0,30.07,SE,132,5.0,6.0,89,0.00,,,0.00,0,weatherlink.com 1.10,2013-08-24 04:38:00,
2013-08-23 23:53:00,57.6,54.0,30.07,SE,132,5.0,6.0,89,0.00,,,0.00,0,weatherlink.com 1.10,2013-08-24 04:53:00,